Time;durP1;ratioP1;P1;durP2;ratioP2;P2;SDS_P1;SDS_P2;PMS_P1;PMS_P2;Temp;Humidity;BMP_temperature;BMP_pressure;BME280_temperature;BME280_humidity;BME280_pressure;Samples;Min_cycle;Max_cycle;Signal;HPM_P1;HPM_P2
2022/07/21 00:00:54;;;;;;;;;;;20.70;99.90;;;;;;5091069;28;19928;-68
2022/07/21 00:03:19;;;;;;;;;;;20.60;99.90;;;;;;5097978;28;19919;-69
2022/07/21 00:05:45;;;;;;;;;;;20.70;99.90;;;;;;5101110;28;19924;-72
2022/07/21 00:08:12;;;;;;;;;;;20.70;99.90;;;;;;5093832;28;19959;-72
2022/07/21 00:10:38;;;;;;;;;;;20.70;99.90;;;;;;5096900;28;20094;-70
2022/07/21 00:13:03;;;;;;;;;;;20.70;99.90;;;;;;5101700;28;20018;-70
2022/07/21 00:15:29;;;;;;;;;;;20.70;99.90;;;;;;5100788;28;19977;-70
2022/07/21 00:17:55;;;;;;;;;;;20.70;99.90;;;;;;5085666;28;20386;-70
2022/07/21 00:20:20;;;;;;;;;;;20.70;99.90;;;;;;5098390;28;19997;-70
2022/07/21 00:22:46;;;;;;;;;;;20.70;99.90;;;;;;5102850;28;19963;-70
2022/07/21 00:25:12;;;;;;;;;;;20.60;99.90;;;;;;5098207;28;21502;-70
2022/07/21 00:27:38;;;;;;;;;;;20.60;99.90;;;;;;5095661;28;20386;-70
2022/07/21 00:30:05;;;;;;;;;;;20.60;99.90;;;;;;5098126;28;20065;-70
2022/07/21 00:32:30;;;;;;;;;;;20.50;99.90;;;;;;5089126;28;20363;-70
2022/07/21 00:34:56;;;;;;;;;;;20.50;99.90;;;;;;5086900;28;19995;-70
2022/07/21 00:37:23;;;;;;;;;;;20.60;99.90;;;;;;5098001;28;19926;-70
2022/07/21 00:39:52;;;;;;;;;;;20.40;99.90;;;;;;5095002;28;19919;-72
2022/07/21 00:42:21;;;;;;;;;;;20.40;99.90;;;;;;5094126;28;20334;-72
2022/07/21 00:44:47;;;;;;;;;;;20.40;99.90;;;;;;5086257;28;19927;-71
2022/07/21 00:47:12;;;;;;;;;;;20.30;99.90;;;;;;5097526;28;20488;-71
2022/07/21 00:49:38;;;;;;;;;;;20.20;99.90;;;;;;5099213;28;20328;-71
2022/07/21 00:52:03;;;;;;;;;;;20.30;99.90;;;;;;5096841;28;20470;-72
2022/07/21 00:54:29;;;;;;;;;;;20.20;99.90;;;;;;5086015;28;19958;-71
2022/07/21 00:56:54;;;;;;;;;;;20.20;99.90;;;;;;5087613;28;20378;-71
2022/07/21 00:59:20;;;;;;;;;;;20.10;99.90;;;;;;5092924;28;19926;-72
2022/07/21 01:01:46;;;;;;;;;;;20.10;99.90;;;;;;5093833;28;19945;-73
2022/07/21 01:04:11;;;;;;;;;;;20.10;99.90;;;;;;5097950;28;20443;-72
2022/07/21 01:06:37;;;;;;;;;;;20.10;99.90;;;;;;5097621;28;19928;-71
2022/07/21 01:09:02;;;;;;;;;;;20.10;99.90;;;;;;5093473;28;20001;-71
2022/07/21 01:11:28;;;;;;;;;;;20.10;99.90;;;;;;5095452;28;19920;-71
2022/07/21 01:13:54;;;;;;;;;;;20.10;99.90;;;;;;5098337;28;20018;-72
2022/07/21 01:16:19;;;;;;;;;;;20.00;99.90;;;;;;5092980;28;19927;-71
2022/07/21 01:18:45;;;;;;;;;;;20.00;99.90;;;;;;5094028;28;19931;-71
2022/07/21 01:21:23;;;;;;;;;;;20.00;99.90;;;;;;5073064;28;19941;-71
2022/07/21 01:23:48;;;;;;;;;;;20.00;99.90;;;;;;5092850;28;20401;-71
2022/07/21 01:26:14;;;;;;;;;;;20.00;99.90;;;;;;5091335;28;20023;-71
2022/07/21 01:28:39;;;;;;;;;;;20.00;99.90;;;;;;5097182;28;19926;-70
2022/07/21 01:31:04;;;;;;;;;;;19.90;99.90;;;;;;5091295;28;19973;-69
2022/07/21 01:33:30;;;;;;;;;;;19.80;99.90;;;;;;5100025;28;20018;-68
2022/07/21 01:35:55;;;;;;;;;;;19.90;99.90;;;;;;5095469;28;19924;-68
2022/07/21 01:43:49;;;;;;;;;;;19.60;99.90;;;;;;5094839;28;20038;-68
2022/07/21 01:46:14;;;;;;;;;;;19.50;99.90;;;;;;5095686;28;20006;-68
2022/07/21 01:48:41;;;;;;;;;;;19.50;99.90;;;;;;5093253;28;20299;-68
2022/07/21 01:51:06;;;;;;;;;;;19.30;99.90;;;;;;5091318;28;20060;-68
2022/07/21 01:53:32;;;;;;;;;;;19.30;99.90;;;;;;5098213;28;19959;-67
2022/07/21 01:55:58;;;;;;;;;;;19.30;99.90;;;;;;5091809;28;19927;-69
2022/07/21 01:58:23;;;;;;;;;;;19.40;99.90;;;;;;5099166;28;19927;-68
2022/07/21 02:00:49;;;;;;;;;;;19.40;99.90;;;;;;5095090;28;19924;-68
2022/07/21 02:03:14;;;;;;;;;;;19.40;99.90;;;;;;5091580;28;20366;-68
2022/07/21 02:05:40;;;;;;;;;;;19.40;99.90;;;;;;5092207;28;20478;-68
2022/07/21 02:08:05;;;;;;;;;;;19.40;99.90;;;;;;5094716;28;19945;-68
2022/07/21 02:10:31;;;;;;;;;;;19.50;99.90;;;;;;5096289;28;20363;-69
2022/07/21 02:12:56;;;;;;;;;;;19.50;99.90;;;;;;5098869;28;19926;-68
2022/07/21 02:15:22;;;;;;;;;;;19.50;99.90;;;;;;5098921;28;20014;-67
2022/07/21 02:17:47;;;;;;;;;;;19.50;99.90;;;;;;5089659;28;19924;-68
2022/07/21 02:20:13;;;;;;;;;;;19.50;99.90;;;;;;5099974;28;20449;-68
2022/07/21 02:22:38;;;;;;;;;;;19.50;99.90;;;;;;5101146;28;19920;-68
2022/07/21 02:25:04;;;;;;;;;;;19.50;99.90;;;;;;5095069;28;19927;-68
2022/07/21 02:27:29;;;;;;;;;;;19.50;99.90;;;;;;5096754;28;19943;-68
2022/07/21 02:29:55;;;;;;;;;;;19.60;99.90;;;;;;5096752;28;19927;-68
2022/07/21 02:32:20;;;;;;;;;;;19.60;99.90;;;;;;5090916;28;19990;-68
2022/07/21 02:34:46;;;;;;;;;;;19.60;99.90;;;;;;5098761;28;19955;-69
2022/07/21 02:37:11;;;;;;;;;;;19.60;99.90;;;;;;5099680;28;20444;-68
2022/07/21 02:39:37;;;;;;;;;;;19.60;99.90;;;;;;5107689;28;19920;-68
2022/07/21 02:42:02;;;;;;;;;;;19.60;99.90;;;;;;5103789;28;20013;-69
2022/07/21 02:44:29;;;;;;;;;;;19.60;99.90;;;;;;5102123;28;19943;-70
2022/07/21 02:46:54;;;;;;;;;;;19.60;99.90;;;;;;5087734;28;21815;-70
2022/07/21 02:49:20;;;;;;;;;;;19.60;99.90;;;;;;5095706;28;20427;-69
2022/07/21 02:51:45;;;;;;;;;;;19.70;99.90;;;;;;5095575;28;20007;-69
2022/07/21 02:54:11;;;;;;;;;;;19.60;99.90;;;;;;5102175;28;19995;-69
2022/07/21 02:56:37;;;;;;;;;;;19.70;99.90;;;;;;5097474;28;19993;-69
2022/07/21 02:59:02;;;;;;;;;;;19.70;99.90;;;;;;5106888;28;21232;-69
2022/07/21 03:01:28;;;;;;;;;;;19.70;99.90;;;;;;5102385;28;20294;-69
2022/07/21 03:03:53;;;;;;;;;;;;;;;;;;5096545;28;19924;-69
2022/07/21 03:06:19;;;;;;;;;;;19.60;99.90;;;;;;5091674;28;20363;-69
2022/07/21 03:08:45;;;;;;;;;;;;;;;;;;5089726;28;19928;-69
2022/07/21 03:11:10;;;;;;;;;;;19.70;99.90;;;;;;5097932;28;19920;-68
2022/07/21 03:13:36;;;;;;;;;;;19.70;99.90;;;;;;5104116;28;19936;-69
2022/07/21 03:16:01;;;;;;;;;;;19.60;99.90;;;;;;5100268;28;20374;-68
2022/07/21 03:18:27;;;;;;;;;;;19.70;99.90;;;;;;5080874;28;20492;-68
2022/07/21 03:20:52;;;;;;;;;;;19.70;99.90;;;;;;5091328;28;19928;-69
2022/07/21 03:23:18;;;;;;;;;;;19.60;99.90;;;;;;5098732;28;20002;-69
2022/07/21 03:25:43;;;;;;;;;;;19.60;99.90;;;;;;5095933;28;19935;-69
2022/07/21 03:28:09;;;;;;;;;;;19.70;99.90;;;;;;5095855;28;19927;-69
2022/07/21 03:30:35;;;;;;;;;;;19.70;99.90;;;;;;5094093;28;19928;-69
2022/07/21 03:33:01;;;;;;;;;;;19.70;99.90;;;;;;5097511;28;21178;-69
2022/07/21 03:35:26;;;;;;;;;;;19.60;99.90;;;;;;5095015;28;19935;-68
2022/07/21 03:37:52;;;;;;;;;;;19.60;99.90;;;;;;5101636;28;19919;-68
2022/07/21 03:40:19;;;;;;;;;;;19.60;99.90;;;;;;5102554;28;20363;-68
2022/07/21 03:42:44;;;;;;;;;;;19.50;99.90;;;;;;5077841;28;19930;-68
2022/07/21 03:45:10;;;;;;;;;;;19.50;99.90;;;;;;5094532;28;19931;-68
2022/07/21 03:47:36;;;;;;;;;;;19.50;99.90;;;;;;5083370;28;20374;-68
2022/07/21 03:50:02;;;;;;;;;;;19.50;99.90;;;;;;5097001;28;20041;-69
2022/07/21 03:52:28;;;;;;;;;;;19.50;99.90;;;;;;5094786;28;19927;-68
2022/07/21 03:55:07;;;;;;;;;;;19.50;99.90;;;;;;5101040;28;19920;-68
2022/07/21 03:57:37;;;;;;;;;;;19.40;99.90;;;;;;5095486;28;19920;-69
2022/07/21 04:00:04;;;;;;;;;;;19.40;99.90;;;;;;5105024;28;20429;-68
2022/07/21 04:02:29;;;;;;;;;;;19.40;99.90;;;;;;5091491;28;20007;-68
2022/07/21 04:04:55;;;;;;;;;;;19.40;99.90;;;;;;5097210;28;20066;-68
2022/07/21 04:07:20;;;;;;;;;;;19.50;99.90;;;;;;5077857;28;19920;-68
2022/07/21 04:09:46;;;;;;;;;;;19.50;99.90;;;;;;5099653;28;19935;-68
2022/07/21 04:12:11;;;;;;;;;;;19.40;99.90;;;;;;5095752;28;19923;-68
2022/07/21 04:14:37;;;;;;;;;;;19.40;99.90;;;;;;5100264;28;19926;-68
2022/07/21 04:17:02;;;;;;;;;;;19.40;99.90;;;;;;5094748;28;20393;-68
2022/07/21 04:19:28;;;;;;;;;;;19.40;99.90;;;;;;5079677;28;19931;-68
2022/07/21 04:21:54;;;;;;;;;;;19.50;99.90;;;;;;5096503;28;19928;-68
2022/07/21 04:24:19;;;;;;;;;;;19.40;99.90;;;;;;5099418;28;19930;-70
2022/07/21 04:26:45;;;;;;;;;;;19.50;99.90;;;;;;5101450;28;19923;-69
2022/07/21 04:29:10;;;;;;;;;;;19.50;99.90;;;;;;5095159;28;20515;-69
2022/07/21 04:31:36;;;;;;;;;;;19.50;99.90;;;;;;5088844;28;19933;-69
2022/07/21 04:34:01;;;;;;;;;;;19.50;99.90;;;;;;5088139;28;19928;-71
2022/07/21 04:36:27;;;;;;;;;;;19.50;99.90;;;;;;5095059;28;19964;-70
2022/07/21 04:38:52;;;;;;;;;;;19.50;99.90;;;;;;5096676;28;19920;-70
2022/07/21 04:41:18;;;;;;;;;;;19.50;99.90;;;;;;5103370;28;20339;-70
2022/07/21 04:43:43;;;;;;;;;;;19.40;99.90;;;;;;5094343;28;19920;-69
2022/07/21 04:46:09;;;;;;;;;;;19.50;99.90;;;;;;5093741;28;19924;-69
2022/07/21 04:48:34;;;;;;;;;;;19.50;99.90;;;;;;5098452;28;19920;-69
2022/07/21 04:51:00;;;;;;;;;;;19.50;99.90;;;;;;5090694;28;19928;-69
2022/07/21 04:53:25;;;;;;;;;;;19.50;99.90;;;;;;5101768;28;19920;-70
2022/07/21 04:55:50;;;;;;;;;;;19.50;99.90;;;;;;5091957;28;19927;-70
2022/07/21 04:58:16;;;;;;;;;;;19.50;99.90;;;;;;5096554;28;20366;-74
2022/07/21 05:00:41;;;;;;;;;;;19.50;99.90;;;;;;5092655;28;19930;-67
2022/07/21 05:03:07;;;;;;;;;;;19.50;99.90;;;;;;5075182;28;20317;-69
2022/07/21 05:05:32;;;;;;;;;;;19.50;99.90;;;;;;5095739;28;19920;-70
2022/07/21 05:07:58;;;;;;;;;;;19.40;99.90;;;;;;5098643;28;19920;-67
2022/07/21 05:10:24;;;;;;;;;;;19.40;99.90;;;;;;5098085;28;20014;-67
2022/07/21 05:12:49;;;;;;;;;;;19.50;99.90;;;;;;5098379;28;19925;-67
2022/07/21 05:15:15;;;;;;;;;;;19.50;99.90;;;;;;5101100;28;20014;-68
2022/07/21 05:17:41;;;;;;;;;;;19.60;99.90;;;;;;5093536;28;19929;-68
2022/07/21 05:20:07;;;;;;;;;;;19.70;99.90;;;;;;5080413;28;20294;-69
2022/07/21 05:22:33;;;;;;;;;;;19.80;99.90;;;;;;5087556;28;20532;-68
2022/07/21 05:24:58;;;;;;;;;;;19.90;99.90;;;;;;5088038;28;20404;-68
2022/07/21 05:27:23;;;;;;;;;;;19.90;99.90;;;;;;5083671;28;19950;-68
2022/07/21 05:29:49;;;;;;;;;;;20.00;99.90;;;;;;5090283;28;20006;-68
2022/07/21 05:32:15;;;;;;;;;;;20.00;99.90;;;;;;5085635;28;19934;-68
2022/07/21 05:34:40;;;;;;;;;;;20.00;99.90;;;;;;5097649;28;20379;-68
2022/07/21 05:37:06;;;;;;;;;;;20.10;99.90;;;;;;5091296;28;19973;-68
2022/07/21 05:39:31;;;;;;;;;;;20.20;99.90;;;;;;5087160;28;19920;-68
2022/07/21 05:41:57;;;;;;;;;;;20.40;99.90;;;;;;5078780;28;19927;-68
2022/07/21 05:44:22;;;;;;;;;;;20.60;99.90;;;;;;5094474;28;20322;-67
2022/07/21 05:46:48;;;;;;;;;;;20.70;99.90;;;;;;5088092;28;20406;-68
2022/07/21 05:49:13;;;;;;;;;;;20.80;99.90;;;;;;5090466;28;19927;-68
2022/07/21 05:51:39;;;;;;;;;;;20.80;99.90;;;;;;5092912;28;19920;-67
2022/07/21 05:54:04;;;;;;;;;;;20.60;99.90;;;;;;5086244;28;19928;-68
2022/07/21 05:56:30;;;;;;;;;;;20.50;99.90;;;;;;5089379;28;19973;-67
2022/07/21 05:58:55;;;;;;;;;;;20.40;99.90;;;;;;5089658;28;19963;-67
2022/07/21 06:01:21;;;;;;;;;;;20.30;99.90;;;;;;5090674;28;20417;-67
2022/07/21 06:03:50;;;;;;;;;;;20.30;99.90;;;;;;5083677;28;19926;-67
2022/07/21 06:06:17;;;;;;;;;;;20.20;99.90;;;;;;5092408;28;19971;-66
2022/07/21 06:08:43;;;;;;;;;;;20.20;99.90;;;;;;5093369;28;19920;-67
2022/07/21 06:11:09;;;;;;;;;;;20.20;99.90;;;;;;5090346;28;19986;-67
2022/07/21 06:13:35;;;;;;;;;;;20.20;99.90;;;;;;5087632;28;19928;-67
2022/07/21 06:16:00;;;;;;;;;;;20.10;99.90;;;;;;5070901;28;19997;-67
2022/07/21 06:18:26;;;;;;;;;;;20.20;99.90;;;;;;5081460;28;19983;-67
2022/07/21 06:20:51;;;;;;;;;;;20.20;99.90;;;;;;5079697;28;19924;-67
2022/07/21 06:23:17;;;;;;;;;;;20.20;99.90;;;;;;5085413;28;20295;-67
2022/07/21 06:25:43;;;;;;;;;;;20.30;99.90;;;;;;5086805;28;19920;-67
2022/07/21 06:28:08;;;;;;;;;;;20.30;99.90;;;;;;5088383;28;20018;-67
2022/07/21 06:30:34;;;;;;;;;;;20.20;99.90;;;;;;5089282;28;19942;-67
2022/07/21 06:32:59;;;;;;;;;;;20.20;99.90;;;;;;5098664;28;19989;-67
2022/07/21 06:35:25;;;;;;;;;;;20.40;99.90;;;;;;5097373;28;19935;-66
2022/07/21 06:37:50;;;;;;;;;;;20.50;99.90;;;;;;5103260;28;20303;-66
2022/07/21 06:40:16;;;;;;;;;;;20.50;99.90;;;;;;5093634;28;20016;-66
2022/07/21 06:42:42;;;;;;;;;;;20.50;99.90;;;;;;5092601;28;19920;-66
2022/07/21 06:45:07;;;;;;;;;;;20.60;99.90;;;;;;5091723;28;19919;-66
2022/07/21 06:47:33;;;;;;;;;;;20.70;99.90;;;;;;5095512;28;19923;-67
2022/07/21 06:50:04;;;;;;;;;;;20.80;99.90;;;;;;5096585;28;22439;-67
2022/07/21 06:52:30;;;;;;;;;;;20.90;99.90;;;;;;5066826;28;19935;-68
2022/07/21 06:54:56;;;;;;;;;;;20.90;99.90;;;;;;5071440;28;19931;-67
2022/07/21 06:57:21;;;;;;;;;;;20.90;99.90;;;;;;5080159;28;19920;-67
2022/07/21 06:59:47;;;;;;;;;;;20.90;99.90;;;;;;5074136;28;20043;-67
2022/07/21 07:02:12;;;;;;;;;;;20.90;99.90;;;;;;5078995;28;19920;-67
2022/07/21 07:04:38;;;;;;;;;;;20.90;99.90;;;;;;5068256;28;19925;-67
2022/07/21 07:07:03;;;;;;;;;;;20.90;99.90;;;;;;5076608;28;20082;-67
2022/07/21 07:09:29;;;;;;;;;;;20.80;99.90;;;;;;5078810;28;20390;-67
2022/07/21 07:12:02;;;;;;;;;;;20.90;99.90;;;;;;5067054;28;19921;-68
2022/07/21 07:14:28;;;;;;;;;;;21.60;99.90;;;;;;5064352;28;20467;-68
2022/07/21 07:16:53;;;;;;;;;;;22.70;99.90;;;;;;5073667;28;19939;-67
2022/07/21 07:19:19;;;;;;;;;;;23.30;99.90;;;;;;5077798;28;20058;-67
2022/07/21 07:21:44;;;;;;;;;;;23.40;99.90;;;;;;5083033;28;19920;-67
2022/07/21 07:24:10;;;;;;;;;;;23.70;99.90;;;;;;5073332;28;19923;-68
2022/07/21 07:26:35;;;;;;;;;;;24.50;99.90;;;;;;5077172;28;19950;-67
2022/07/21 07:29:01;;;;;;;;;;;24.30;99.90;;;;;;5084112;28;19963;-67
2022/07/21 07:31:27;;;;;;;;;;;23.80;99.90;;;;;;5079384;28;19973;-67
2022/07/21 07:33:52;;;;;;;;;;;23.90;99.90;;;;;;5086344;28;19920;-67
2022/07/21 07:36:18;;;;;;;;;;;24.30;99.90;;;;;;5070190;28;19959;-67
2022/07/21 07:38:43;;;;;;;;;;;24.60;99.90;;;;;;5073730;28;19920;-67
2022/07/21 07:41:09;;;;;;;;;;;25.30;99.90;;;;;;5069760;28;19921;-67
2022/07/21 07:43:34;;;;;;;;;;;25.80;99.90;;;;;;5063286;28;20294;-67
2022/07/21 07:46:01;;;;;;;;;;;25.90;99.90;;;;;;5059321;28;19953;-66
2022/07/21 07:48:27;;;;;;;;;;;26.00;99.90;;;;;;5076364;28;19920;-67
2022/07/21 07:50:52;;;;;;;;;;;25.90;99.90;;;;;;5071986;28;20362;-66
2022/07/21 07:53:18;;;;;;;;;;;25.50;99.90;;;;;;5104831;28;19926;-67
2022/07/21 07:55:43;;;;;;;;;;;25.20;99.90;;;;;;5092837;28;19934;-69
2022/07/21 07:58:09;;;;;;;;;;;24.70;99.90;;;;;;5089233;28;20023;-69
2022/07/21 08:00:35;;;;;;;;;;;25.00;99.90;;;;;;5092749;28;19938;-67
2022/07/21 08:03:01;;;;;;;;;;;25.20;99.90;;;;;;5085420;28;19990;-67
2022/07/21 08:05:26;;;;;;;;;;;25.30;99.90;;;;;;5085920;28;19920;-68
2022/07/21 08:07:52;;;;;;;;;;;25.00;99.90;;;;;;5096674;28;19927;-74
2022/07/21 08:10:17;;;;;;;;;;;24.80;99.90;;;;;;5101046;28;19919;-74
2022/07/21 10:51:25;;;;;;;31.63;28.77;;;25.00;99.90;;;;;;5124021;27;20441;-56
2022/07/21 10:54:20;;;;;;;31.08;28.08;;;25.10;99.90;;;;;;5111619;28;20553;-56
2022/07/21 10:56:45;;;;;;;31.10;28.25;;;25.30;99.90;;;;;;5102626;28;20119;-57
2022/07/21 10:59:11;;;;;;;29.75;26.92;;;25.40;99.90;;;;;;5103464;28;20131;-57
2022/07/21 11:01:39;;;;;;;29.15;26.38;;;25.20;99.90;;;;;;5101776;28;20508;-56
2022/07/21 11:04:10;;;;;;;26.00;23.73;;;24.90;99.90;;;;;;5101476;28;20051;-56
2022/07/21 11:06:38;;;;;;;23.27;21.25;;;24.70;99.90;;;;;;5100164;28;20119;-57
2022/07/21 11:09:03;;;;;;;20.52;18.65;;;24.80;99.90;;;;;;5105466;28;20043;-56
2022/07/21 11:11:32;;;;;;;20.40;18.63;;;24.80;99.90;;;;;;5100831;28;20123;-57
2022/07/21 11:14:17;;;;;;;19.55;17.67;;;24.90;99.90;;;;;;5104683;28;20047;-56
2022/07/21 11:16:43;;;;;;;20.98;19.02;;;24.90;99.90;;;;;;5100145;28;20040;-58
2022/07/21 11:19:40;;;;;;;20.95;18.88;;;24.50;99.90;;;;;;5098943;28;20043;-60
2022/07/21 11:22:22;;;;;;;;;;;24.50;99.90;;;;;;5098161;28;20126;-56
2022/07/21 11:24:51;;;;;;;19.90;17.80;;;24.40;99.90;;;;;;5096282;28;20333;-57
2022/07/21 11:27:19;;;;;;;19.45;17.55;;;24.50;99.90;;;;;;5102340;27;20071;-57
2022/07/21 11:29:47;;;;;;;18.92;17.23;;;24.50;99.90;;;;;;5100569;28;20043;-57
2022/07/21 11:32:14;;;;;;;17.52;15.82;;;24.50;99.90;;;;;;5101905;28;20074;-57
2022/07/21 11:34:42;;;;;;;;;;;24.70;99.90;;;;;;5103029;28;20252;-57
2022/07/21 11:37:09;;;;;;;18.08;16.23;;;25.00;99.90;;;;;;5101705;28;19934;-57
2022/07/21 11:39:35;;;;;;;17.67;15.93;;;25.10;99.90;;;;;;5101445;28;20123;-58
2022/07/21 11:42:13;;;;;;;18.48;16.83;;;25.30;99.90;;;;;;5104372;28;20043;-57
2022/07/21 11:44:39;;;;;;;19.13;17.15;;;25.20;99.90;;;;;;5099777;28;20128;-57
2022/07/21 11:47:06;;;;;;;20.25;18.23;;;25.40;99.90;;;;;;5100700;28;20522;-57
2022/07/21 11:49:33;;;;;;;18.83;16.85;;;25.50;99.90;;;;;;5100991;28;20048;-57
2022/07/21 11:52:03;;;;;;;16.92;15.23;;;25.70;99.90;;;;;;5092361;28;20063;-58
2022/07/21 11:54:36;;;;;;;15.20;13.63;;;26.20;99.90;;;;;;5085920;28;20036;-57
2022/07/21 11:57:07;;;;;;;17.77;15.98;;;26.30;99.90;;;;;;5085481;28;20093;-57
2022/07/21 11:59:35;;;;;;;17.67;15.90;;;26.30;99.90;;;;;;5086622;28;20047;-56
2022/07/21 12:02:14;;;;;;;19.42;17.42;;;26.10;99.90;;;;;;5084606;28;20036;-57
2022/07/21 12:04:41;;;;;;;20.77;17.98;;;26.20;99.90;;;;;;5085141;28;20391;-57
2022/07/21 12:07:10;;;;;;;;;;;25.90;99.90;;;;;;5085359;28;20260;-58
2022/07/21 12:09:36;;;;;;;24.08;21.55;;;26.00;99.90;;;;;;5082774;28;19927;-57
2022/07/21 12:12:03;;;;;;;19.80;18.00;;;25.70;99.90;;;;;;5088932;28;20036;-56
2022/07/21 12:14:50;;;;;;;22.60;18.88;;;25.20;99.90;;;;;;5084154;28;20093;-58
2022/07/21 12:17:30;;;;;;;21.20;19.00;;;24.80;99.90;;;;;;5085748;28;20044;-57
2022/07/21 12:19:56;;;;;;;22.90;20.48;;;24.70;99.90;;;;;;5086235;28;20052;-58
2022/07/21 12:22:46;;;;;;;22.73;20.50;;;24.40;99.90;;;;;;5085366;28;20085;-57
2022/07/21 12:25:13;;;;;;;23.83;21.35;;;24.20;99.90;;;;;;5086154;28;20126;-58
2022/07/21 12:27:42;;;;;;;22.80;20.52;;;24.00;99.90;;;;;;5086107;28;20059;-57
2022/07/21 12:30:28;;;;;;;22.92;20.75;;;24.00;99.90;;;;;;5094250;28;20044;-58
2022/07/21 12:32:53;;;;;;;23.65;21.45;;;24.00;99.90;;;;;;5088179;28;20786;-57
2022/07/21 12:35:28;;;;;;;23.45;21.27;;;24.10;99.90;;;;;;5088468;28;20053;-56
2022/07/21 12:38:04;;;;;;;23.73;21.42;;;24.10;99.90;;;;;;5089916;28;20074;-57
2022/07/21 12:40:32;;;;;;;22.27;20.23;;;24.10;99.90;;;;;;5090876;28;20036;-58
2022/07/21 12:43:09;;;;;;;22.75;20.48;;;24.00;99.90;;;;;;5083124;28;20780;-57
2022/07/21 12:45:48;;;;;;;;;;;23.90;99.90;;;;;;5081772;28;20058;-58
2022/07/21 12:48:16;;;;;;;18.30;16.30;;;23.60;99.90;;;;;;5086593;28;20370;-57
2022/07/21 12:50:56;;;;;;;19.77;17.70;;;23.50;99.90;;;;;;5086241;28;20079;-57
2022/07/21 12:53:21;;;;;;;14.20;12.80;;;23.30;99.90;;;;;;5087749;28;20094;-57
2022/07/21 12:55:47;;;;;;;14.02;12.73;;;23.10;99.90;;;;;;5092759;28;20040;-57
2022/07/21 12:58:12;;;;;;;13.35;12.13;;;23.10;99.90;;;;;;5085556;28;20047;-56
2022/07/21 13:00:38;;;;;;;15.02;13.63;;;22.90;99.90;;;;;;5090810;28;20074;-56
2022/07/21 13:03:04;;;;;;;13.70;12.30;;;22.80;99.90;;;;;;5088473;28;20050;-59
2022/07/21 13:05:29;;;;;;;11.23;10.10;;;22.70;99.90;;;;;;5092359;28;20037;-58
2022/07/21 13:07:55;;;;;;;12.57;9.98;;;22.60;99.90;;;;;;5093007;28;20040;-57
2022/07/21 13:10:21;;;;;;;10.40;9.40;;;22.50;99.90;;;;;;5090639;28;20040;-58
2022/07/21 13:12:47;;;;;;;9.07;8.18;;;22.50;99.90;;;;;;5093060;28;20040;-57
2022/07/21 13:15:13;;;;;;;8.93;7.03;;;22.40;99.90;;;;;;5092462;28;20094;-57
2022/07/21 13:17:39;;;;;;;6.50;5.88;;;22.30;99.90;;;;;;5091595;28;20043;-58
2022/07/21 13:20:05;;;;;;;5.97;5.47;;;22.30;99.90;;;;;;5093046;28;20040;-58
2022/07/21 13:22:31;;;;;;;6.28;5.80;;;22.10;99.90;;;;;;5092772;28;20406;-57
2022/07/21 13:24:56;;;;;;;7.60;6.78;;;22.10;99.90;;;;;;5091098;28;20047;-58
2022/07/21 13:27:22;;;;;;;7.30;6.60;;;22.00;99.90;;;;;;5090187;28;20115;-57
2022/07/21 13:29:47;;;;;;;6.32;5.70;;;21.90;99.90;;;;;;5087776;28;20489;-58
2022/07/21 13:32:13;;;;;;;6.18;5.60;;;21.80;99.90;;;;;;5086239;28;20051;-56
2022/07/21 13:34:39;;;;;;;6.43;5.82;;;21.70;99.90;;;;;;5090301;28;20445;-57
2022/07/21 13:37:04;;;;;;;6.70;6.10;;;21.60;99.90;;;;;;5085456;28;20131;-58
2022/07/21 13:39:31;;;;;;;6.78;6.15;;;21.60;99.90;;;;;;5086268;28;20078;-58
2022/07/21 13:41:57;;;;;;;6.40;5.90;;;21.60;99.90;;;;;;5087119;28;20048;-57
2022/07/21 13:44:22;;;;;;;6.90;6.30;;;21.50;99.90;;;;;;5079069;28;20340;-58
2022/07/21 13:46:48;;;;;;;6.78;6.28;;;21.40;99.90;;;;;;5086542;28;20455;-57
2022/07/21 13:49:14;;;;;;;7.13;6.47;;;21.30;99.90;;;;;;5087441;28;20105;-57
2022/07/21 13:51:39;;;;;;;7.57;6.75;;;21.20;99.90;;;;;;5079725;28;20050;-58
2022/07/21 13:54:05;;;;;;;7.30;6.60;;;21.20;99.90;;;;;;5076768;28;20095;-57
2022/07/21 13:56:31;;;;;;;7.18;6.57;;;21.10;99.90;;;;;;5086040;28;20411;-58
2022/07/21 13:58:56;;;;;;;7.32;6.72;;;21.10;99.90;;;;;;5085604;28;20048;-57
2022/07/21 14:01:22;;;;;;;7.68;6.97;;;21.10;99.90;;;;;;5085546;28;20118;-58
2022/07/21 14:03:49;;;;;;;7.50;6.90;;;21.20;99.90;;;;;;5085890;28;20034;-58
2022/07/21 14:06:15;;;;;;;7.07;6.57;;;21.30;99.90;;;;;;5085855;28;20048;-58
2022/07/21 14:08:41;;;;;;;7.13;6.60;;;21.30;99.90;;;;;;5081174;28;20479;-58
2022/07/21 14:11:07;;;;;;;8.32;7.65;;;21.40;99.90;;;;;;5081391;28;20034;-57
2022/07/21 14:13:33;;;;;;;7.97;7.28;;;21.40;99.90;;;;;;5081803;28;20052;-57
2022/07/21 14:16:00;;;;;;;8.45;7.75;;;21.60;99.90;;;;;;5078678;28;20130;-58
2022/07/21 14:18:26;;;;;;;8.02;7.43;;;21.80;99.90;;;;;;5081367;28;20163;-57
2022/07/21 14:20:52;;;;;;;8.38;7.78;;;22.00;99.90;;;;;;5083078;28;20554;-57
2022/07/21 14:23:19;;;;;;;8.85;8.15;;;22.30;99.90;;;;;;5081498;28;20055;-57
2022/07/21 14:25:46;;;;;;;9.32;8.50;;;22.40;99.90;;;;;;5082043;28;20051;-59
2022/07/21 14:28:12;;;;;;;8.77;7.90;;;22.60;99.90;;;;;;5083724;28;20094;-58
2022/07/21 14:30:38;;;;;;;9.07;8.15;;;22.80;99.90;;;;;;5081982;28;20488;-58
2022/07/21 14:33:03;;;;;;;9.63;8.88;;;22.80;99.90;;;;;;5083328;28;20071;-58
2022/07/21 14:35:29;;;;;;;8.75;8.05;;;23.00;99.90;;;;;;5083759;28;20048;-58
2022/07/21 14:37:55;;;;;;;8.93;8.15;;;23.10;99.90;;;;;;5081100;28;20040;-59
2022/07/21 14:40:21;;;;;;;9.45;8.48;;;23.30;99.90;;;;;;5085412;28;20029;-58
2022/07/21 14:42:48;;;;;;;8.13;7.30;;;23.30;99.90;;;;;;5080236;28;20051;-57
2022/07/21 14:45:14;;;;;;;;;;;23.40;99.90;;;;;;5084006;28;20044;-57
2022/07/21 14:47:40;;;;;;;7.72;7.13;;;23.40;99.90;;;;;;5083484;28;19931;-59
2022/07/21 14:50:05;;;;;;;7.03;6.43;;;23.50;99.90;;;;;;5083335;28;20052;-58
2022/07/21 14:52:31;;;;;;;6.43;5.85;;;23.60;99.90;;;;;;5078848;28;20036;-58
2022/07/21 14:54:57;;;;;;;6.18;5.57;;;23.40;99.90;;;;;;5079892;28;20037;-56
2022/07/21 14:57:22;;;;;;;5.95;5.45;;;23.10;99.90;;;;;;5083247;28;20431;-58
2022/07/21 14:59:48;;;;;;;6.78;5.18;;;23.20;99.90;;;;;;5077972;28;20044;-58
2022/07/21 15:02:13;;;;;;;5.47;5.07;;;23.10;99.90;;;;;;5081174;28;20078;-58
2022/07/21 15:04:39;;;;;;;5.57;5.10;;;23.10;99.90;;;;;;5082102;28;20491;-58
2022/07/21 15:07:05;;;;;;;5.70;5.20;;;23.10;99.90;;;;;;5078727;28;20036;-57
2022/07/21 15:09:31;;;;;;;5.28;4.80;;;23.30;99.90;;;;;;5083085;28;20032;-58
2022/07/21 15:11:57;;;;;;;5.63;5.18;;;23.50;99.90;;;;;;5083237;28;20372;-58
2022/07/21 15:14:22;;;;;;;5.60;5.05;;;23.60;99.90;;;;;;5083138;28;20036;-58
2022/07/21 15:16:48;;;;;;;5.65;5.22;;;23.70;99.90;;;;;;5081917;28;20091;-59
2022/07/21 15:19:13;;;;;;;6.05;5.40;;;24.00;99.90;;;;;;5081783;28;20097;-58
2022/07/21 15:21:40;;;;;;;6.65;6.03;;;24.00;99.90;;;;;;5080298;28;20155;-60
2022/07/21 15:24:06;;;;;;;7.13;5.60;;;24.00;99.90;;;;;;5082502;28;20119;-58
2022/07/21 15:26:32;;;;;;;6.32;5.72;;;24.00;99.90;;;;;;5085042;28;20043;-58
2022/07/21 15:28:58;;;;;;;5.85;5.35;;;23.90;99.90;;;;;;5086794;28;20044;-58
2022/07/21 15:31:24;;;;;;;6.07;5.57;;;23.90;99.90;;;;;;5080754;28;20080;-58
2022/07/21 15:33:49;;;;;;;5.20;4.80;;;23.90;99.90;;;;;;5083295;28;20059;-60
2022/07/21 15:36:15;;;;;;;5.47;4.97;;;23.90;99.90;;;;;;5084289;28;20388;-58
2022/07/21 15:38:40;;;;;;;5.28;4.88;;;23.90;99.90;;;;;;5086378;28;20075;-58
2022/07/21 15:41:06;;;;;;;4.82;4.47;;;23.70;99.90;;;;;;5088922;28;20043;-58
2022/07/21 15:43:32;;;;;;;5.35;4.90;;;23.60;99.90;;;;;;5084899;28;20040;-58
2022/07/21 15:45:57;;;;;;;4.95;4.55;;;23.40;99.90;;;;;;5086678;28;20044;-58
2022/07/21 15:48:23;;;;;;;5.10;4.70;;;23.40;99.90;;;;;;5083446;28;20041;-57
2022/07/21 15:50:48;;;;;;;4.40;4.10;;;23.40;99.90;;;;;;5087649;28;20052;-59
2022/07/21 15:53:14;;;;;;;4.78;4.38;;;23.40;99.90;;;;;;5084649;28;20491;-59
2022/07/21 15:55:40;;;;;;;4.70;4.30;;;23.50;99.90;;;;;;5084803;28;20055;-59
2022/07/21 15:58:05;;;;;;;4.75;4.35;;;23.60;99.90;;;;;;5083933;28;20154;-59
2022/07/21 16:00:31;;;;;;;5.07;4.70;;;23.60;99.90;;;;;;5084655;28;20039;-58
2022/07/21 16:02:57;;;;;;;4.50;4.20;;;23.60;99.90;;;;;;5086669;28;20093;-58
2022/07/21 16:05:25;;;;;;;5.10;4.70;;;23.60;99.90;;;;;;5086820;28;20040;-57
2022/07/21 16:07:52;;;;;;;5.60;4.85;;;23.60;99.90;;;;;;5086225;28;20860;-58
2022/07/21 16:10:18;;;;;;;5.00;4.50;;;23.60;99.90;;;;;;5084968;28;20123;-58
2022/07/21 16:12:46;;;;;;;4.95;4.45;;;23.50;99.90;;;;;;5082907;28;20041;-59
2022/07/21 16:15:14;;;;;;;4.97;4.40;;;23.30;99.90;;;;;;5085569;28;20048;-57
2022/07/21 16:17:40;;;;;;;4.90;4.40;;;23.10;99.90;;;;;;5084870;28;20071;-58